Time;durP1;ratioP1;P1;durP2;ratioP2;P2;SDS_P1;SDS_P2;PMS_P1;PMS_P2;Temp;Humidity;BMP_temperature;BMP_pressure;BME280_temperature;BME280_humidity;BME280_pressure;Samples;Min_cycle;Max_cycle;Signal;HPM_P1;HPM_P2
2021/01/01 00:00:47;;;;;;;17.83;9.32;;;2.80;99.90;;;;;;5072231;28;20045;-70
2021/01/01 00:03:15;;;;;;;17.30;9.55;;;2.80;99.90;;;;;;5070665;28;20059;-70
2021/01/01 00:05:43;;;;;;;14.82;9.00;;;2.70;99.90;;;;;;5072213;28;20048;-70
2021/01/01 00:08:10;;;;;;;14.48;8.20;;;2.80;99.90;;;;;;5071927;28;20048;-70
2021/01/01 00:10:36;;;;;;;13.80;8.63;;;2.80;99.90;;;;;;5060249;28;20053;-69
2021/01/01 00:13:03;;;;;;;13.48;9.02;;;2.80;99.90;;;;;;5071217;28;20512;-71
2021/01/01 00:15:29;;;;;;;12.60;7.65;;;2.80;99.90;;;;;;5070979;28;20505;-70
2021/01/01 00:17:56;;;;;;;13.30;8.20;;;2.90;99.90;;;;;;5071968;28;20105;-70
2021/01/01 00:20:22;;;;;;;19.50;10.93;;;2.90;99.90;;;;;;5072162;28;20052;-70
2021/01/01 00:22:49;;;;;;;13.32;8.82;;;2.90;99.90;;;;;;5069558;28;20055;-70
2021/01/01 00:25:15;;;;;;;15.93;9.18;;;3.00;99.90;;;;;;5054043;28;20052;-70
2021/01/01 00:27:42;;;;;;;14.27;9.30;;;3.00;99.90;;;;;;5071256;28;20052;-70
2021/01/01 00:30:11;;;;;;;13.68;8.98;;;3.00;99.90;;;;;;5061822;28;20079;-69
2021/01/01 00:32:41;;;;;;;13.25;8.68;;;3.00;99.90;;;;;;5070763;28;20037;-69
2021/01/01 00:35:08;;;;;;;14.68;9.50;;;3.00;99.90;;;;;;5072495;28;20410;-70
2021/01/01 00:37:35;;;;;;;15.55;9.30;;;3.00;99.90;;;;;;5070737;28;20442;-71
2021/01/01 00:40:05;;;;;;;18.67;10.85;;;3.00;99.90;;;;;;5071716;28;20075;-71
2021/01/01 00:42:36;;;;;;;19.38;12.27;;;3.10;99.90;;;;;;5069400;28;20508;-70
2021/01/01 00:45:04;;;;;;;13.65;8.98;;;3.10;99.90;;;;;;5071741;28;20055;-69
2021/01/01 00:47:31;;;;;;;14.40;8.73;;;3.00;99.90;;;;;;5069163;28;20052;-69
2021/01/01 00:49:58;;;;;;;13.93;9.05;;;3.00;99.90;;;;;;5071887;28;20426;-70
2021/01/01 00:52:25;;;;;;;14.75;9.30;;;2.90;99.90;;;;;;5070712;28;20052;-71
2021/01/01 00:54:51;;;;;;;16.02;8.90;;;2.90;99.90;;;;;;5053391;28;20131;-70
2021/01/01 00:57:17;;;;;;;16.20;10.77;;;2.80;99.90;;;;;;5070811;28;20067;-69
2021/01/01 00:59:44;;;;;;;16.60;10.30;;;2.80;99.90;;;;;;5050998;28;20037;-70
2021/01/01 01:02:10;;;;;;;17.02;9.98;;;2.80;99.90;;;;;;5070860;28;20051;-70
2021/01/01 01:04:37;;;;;;;15.32;9.85;;;2.70;99.90;;;;;;5069953;28;20483;-70
2021/01/01 01:07:03;;;;;;;18.00;9.63;;;2.80;99.90;;;;;;5070646;28;20059;-69
2021/01/01 01:09:30;;;;;;;15.95;9.45;;;2.80;99.90;;;;;;5065783;28;20083;-70
2021/01/01 01:11:57;;;;;;;15.63;9.93;;;2.80;99.90;;;;;;5063524;28;20044;-70
2021/01/01 01:14:23;;;;;;;15.98;9.70;;;2.80;99.90;;;;;;5070685;28;20048;-71
2021/01/01 01:16:50;;;;;;;15.90;9.57;;;2.80;99.90;;;;;;5070363;28;20040;-69
2021/01/01 01:19:16;;;;;;;14.00;8.52;;;2.80;99.90;;;;;;5071927;28;20055;-70
2021/01/01 01:21:43;;;;;;;15.48;9.23;;;2.70;99.90;;;;;;5068774;28;20040;-70
2021/01/01 01:24:09;;;;;;;15.43;9.70;;;2.70;99.90;;;;;;5070357;28;20052;-70
2021/01/01 01:26:36;;;;;;;14.70;9.65;;;2.70;99.90;;;;;;5068807;28;20426;-70
2021/01/01 01:29:02;;;;;;;14.57;9.85;;;2.70;99.90;;;;;;5070241;28;20402;-70
2021/01/01 01:31:29;;;;;;;15.38;9.60;;;2.70;99.90;;;;;;5069539;28;20060;-69
2021/01/01 01:33:56;;;;;;;14.50;8.85;;;2.70;99.90;;;;;;5064197;28;20439;-70
2021/01/01 01:36:22;;;;;;;14.30;9.02;;;2.70;99.90;;;;;;5069891;28;20049;-70
2021/01/01 01:38:48;;;;;;;14.35;8.85;;;2.80;99.90;;;;;;5071092;28;20044;-70
2021/01/01 01:41:15;;;;;;;14.20;8.90;;;2.90;99.90;;;;;;5065767;28;20049;-70
2021/01/01 01:43:42;;;;;;;16.15;8.23;;;2.90;99.90;;;;;;5068109;28;20051;-70
2021/01/01 01:46:08;;;;;;;13.20;9.02;;;2.90;99.90;;;;;;5050099;28;20463;-70
2021/01/01 01:48:37;;;;;;;13.13;9.45;;;3.00;99.90;;;;;;5071196;28;20052;-66
2021/01/01 01:51:14;;;;;;;15.45;9.05;;;3.00;99.90;;;;;;5069212;28;20048;-67
2021/01/01 01:53:43;;;;;;;14.15;9.10;;;3.00;99.90;;;;;;5065763;28;20435;-66
2021/01/01 01:56:11;;;;;;;16.40;10.00;;;3.10;99.90;;;;;;5058211;28;20067;-69
2021/01/01 01:58:39;;;;;;;15.57;8.75;;;3.10;99.90;;;;;;5069403;28;20044;-67
2021/01/01 02:01:06;;;;;;;13.40;8.75;;;3.20;99.90;;;;;;5068127;28;20052;-66
2021/01/01 02:03:33;;;;;;;13.95;9.00;;;3.20;99.90;;;;;;5069497;28;20049;-67
2021/01/01 02:06:01;;;;;;;13.18;9.10;;;3.20;99.90;;;;;;5069175;28;20048;-67
2021/01/01 02:08:28;;;;;;;14.20;8.38;;;3.20;99.90;;;;;;5043128;28;20045;-67
2021/01/01 02:10:57;;;;;;;13.00;7.70;;;3.30;99.90;;;;;;5064773;28;20056;-67
2021/01/01 02:13:23;;;;;;;10.80;7.50;;;3.20;99.90;;;;;;5051083;28;20048;-66
2021/01/01 02:15:51;;;;;;;11.98;7.88;;;3.20;99.90;;;;;;5072563;28;20045;-70
2021/01/01 02:18:34;;;;;;;12.30;7.65;;;3.20;99.90;;;;;;5051832;28;20044;-67
2021/01/01 02:21:03;;;;;;;13.93;8.02;;;3.20;99.90;;;;;;5066242;28;20052;-68
2021/01/01 02:23:30;;;;;;;15.05;9.10;;;3.20;99.90;;;;;;5051897;28;20075;-67
2021/01/01 02:25:57;;;;;;;13.18;7.65;;;3.20;99.90;;;;;;5068520;28;20052;-68
2021/01/01 02:28:23;;;;;;;12.15;7.90;;;3.20;99.90;;;;;;5070490;28;20079;-67
2021/01/01 02:30:50;;;;;;;10.88;7.25;;;3.20;99.90;;;;;;5069587;28;20414;-68
2021/01/01 02:33:17;;;;;;;12.00;7.63;;;3.20;99.90;;;;;;5070650;28;20053;-67
2021/01/01 02:35:43;;;;;;;11.90;7.97;;;3.10;99.90;;;;;;5070379;28;20044;-67
2021/01/01 02:38:10;;;;;;;13.07;8.07;;;3.10;99.90;;;;;;5070784;28;20067;-67
2021/01/01 02:40:37;;;;;;;13.88;8.48;;;3.10;99.90;;;;;;5052483;28;20379;-66
2021/01/01 02:43:04;;;;;;;13.48;8.48;;;3.00;99.90;;;;;;5070852;28;20063;-68
2021/01/01 02:45:31;;;;;;;14.55;8.02;;;3.00;99.90;;;;;;5069506;28;20055;-68
2021/01/01 02:48:23;;;;;;;13.45;8.77;;;2.90;99.90;;;;;;5065995;28;20048;-68
2021/01/01 02:50:51;;;;;;;14.95;8.70;;;2.90;99.90;;;;;;5060864;28;20052;-67
2021/01/01 02:53:17;;;;;;;13.68;8.85;;;2.90;99.90;;;;;;5067944;28;20047;-66
2021/01/01 02:55:44;;;;;;;14.05;9.00;;;2.90;99.90;;;;;;5071950;28;20040;-69
2021/01/01 02:58:10;;;;;;;12.63;8.95;;;2.90;99.90;;;;;;5069176;28;20045;-66
2021/01/01 03:00:39;;;;;;;15.18;9.05;;;3.00;99.90;;;;;;5070552;28;20052;-67
2021/01/01 03:03:06;;;;;;;13.13;8.43;;;3.00;99.90;;;;;;5072558;28;20139;-67
2021/01/01 03:05:34;;;;;;;13.75;9.00;;;3.00;99.90;;;;;;5073289;28;20059;-67
2021/01/01 03:08:01;;;;;;;13.68;9.45;;;3.00;99.90;;;;;;5071428;28;20059;-67
2021/01/01 03:10:27;;;;;;;14.55;8.45;;;3.00;99.90;;;;;;5072000;28;20052;-66
2021/01/01 03:12:54;;;;;;;15.05;9.63;;;3.00;99.90;;;;;;5070019;28;20051;-67
2021/01/01 03:15:20;;;;;;;13.07;9.27;;;2.90;99.90;;;;;;5073292;28;20049;-66
2021/01/01 03:17:47;;;;;;;15.70;9.95;;;3.00;99.90;;;;;;5072531;28;20036;-66
2021/01/01 03:20:14;;;;;;;14.48;9.40;;;2.90;99.90;;;;;;5072800;28;20052;-66
2021/01/01 03:22:40;;;;;;;15.88;10.27;;;2.90;99.90;;;;;;5072020;28;20044;-67
2021/01/01 03:25:08;;;;;;;16.48;10.50;;;2.80;99.90;;;;;;5056712;28;20055;-67
2021/01/01 03:27:34;;;;;;;14.88;9.35;;;2.80;99.90;;;;;;5072503;28;20509;-67
2021/01/01 03:30:01;;;;;;;14.55;9.70;;;2.70;99.90;;;;;;5070542;28;20524;-67
2021/01/01 03:32:27;;;;;;;15.40;9.07;;;2.70;99.90;;;;;;5072315;28;20048;-67
2021/01/01 03:34:54;;;;;;;15.65;10.48;;;2.70;99.90;;;;;;5072855;28;20619;-67
2021/01/01 03:37:21;;;;;;;16.83;10.88;;;2.70;99.90;;;;;;5067829;28;20041;-69
2021/01/01 03:39:47;;;;;;;16.73;10.90;;;2.60;99.90;;;;;;5069403;28;20048;-66
2021/01/01 03:42:14;;;;;;;15.13;9.85;;;2.60;99.90;;;;;;5071565;28;20071;-67
2021/01/01 03:44:40;;;;;;;15.30;10.20;;;2.60;99.90;;;;;;5071724;28;20051;-67
2021/01/01 03:47:08;;;;;;;16.63;10.32;;;2.60;99.90;;;;;;5072638;28;20053;-67
2021/01/01 03:49:34;;;;;;;15.93;10.18;;;2.60;99.90;;;;;;5064655;28;20056;-67
2021/01/01 03:52:01;;;;;;;17.75;10.95;;;2.60;99.90;;;;;;5070242;28;20147;-67
2021/01/01 03:54:27;;;;;;;15.75;10.32;;;2.60;99.90;;;;;;5068292;28;20052;-68
2021/01/01 03:56:54;;;;;;;17.73;11.00;;;2.60;99.90;;;;;;5072356;28;20055;-69
2021/01/01 03:59:20;;;;;;;16.42;10.52;;;2.60;99.90;;;;;;5071872;28;20487;-68
2021/01/01 04:01:47;;;;;;;17.65;10.10;;;2.60;99.90;;;;;;5071867;28;20040;-68
2021/01/01 04:04:14;;;;;;;16.73;10.30;;;2.60;99.90;;;;;;5071265;28;20070;-69
2021/01/01 04:06:40;;;;;;;15.32;10.18;;;2.60;99.90;;;;;;5070460;28;20045;-67
2021/01/01 04:09:07;;;;;;;17.25;10.20;;;2.60;99.90;;;;;;5071573;28;20052;-68
2021/01/01 04:11:35;;;;;;;16.08;10.23;;;2.60;99.90;;;;;;5062817;28;20050;-68
2021/01/01 04:14:02;;;;;;;15.65;10.32;;;2.60;99.90;;;;;;5072422;28;20501;-67
2021/01/01 04:16:30;;;;;;;17.55;11.18;;;2.70;99.90;;;;;;5072827;28;20482;-68
2021/01/01 04:18:57;;;;;;;17.58;10.65;;;2.70;99.90;;;;;;5073253;28;20098;-68
2021/01/01 04:21:24;;;;;;;18.65;10.20;;;2.70;99.90;;;;;;5073180;28;20045;-68
2021/01/01 04:23:50;;;;;;;18.10;9.98;;;2.70;99.90;;;;;;5073175;28;20071;-69
2021/01/01 04:26:17;;;;;;;16.42;11.15;;;2.70;99.90;;;;;;5072805;28;20586;-68
2021/01/01 04:28:43;;;;;;;17.95;10.85;;;2.70;99.90;;;;;;5088088;28;20054;-68
2021/01/01 04:31:10;;;;;;;16.38;10.60;;;2.80;99.90;;;;;;5072689;28;20778;-67
2021/01/01 04:33:37;;;;;;;16.13;10.82;;;2.80;99.90;;;;;;5071695;28;20051;-69
2021/01/01 04:36:04;;;;;;;18.13;11.65;;;2.70;99.90;;;;;;5072589;28;20051;-67
2021/01/01 04:38:30;;;;;;;19.88;12.40;;;2.70;99.90;;;;;;5072509;28;20052;-68
2021/01/01 04:40:58;;;;;;;17.10;10.95;;;2.70;99.90;;;;;;5085904;28;20086;-67
2021/01/01 04:43:24;;;;;;;16.73;10.63;;;2.70;99.90;;;;;;5071383;28;20495;-67
2021/01/01 04:45:53;;;;;;;18.25;12.10;;;2.60;99.90;;;;;;5070934;28;20138;-68
2021/01/01 04:48:20;;;;;;;16.85;11.35;;;2.60;99.90;;;;;;5070538;28;20414;-67
2021/01/01 04:50:47;;;;;;;19.35;12.25;;;2.60;99.90;;;;;;5071116;28;20070;-67
2021/01/01 04:53:17;;;;;;;19.40;12.10;;;2.50;99.90;;;;;;5067210;28;20398;-67
2021/01/01 04:55:44;;;;;;;20.30;12.25;;;2.50;99.90;;;;;;5070703;28;20044;-67
2021/01/01 04:58:13;;;;;;;17.73;10.90;;;2.50;99.90;;;;;;5070189;28;20044;-68
2021/01/01 05:00:39;;;;;;;17.52;11.52;;;2.50;99.90;;;;;;5070410;28;20421;-67
2021/01/01 05:03:05;;;;;;;18.10;11.35;;;2.50;99.90;;;;;;5069172;28;20102;-67
2021/01/01 05:05:33;;;;;;;19.33;11.40;;;2.50;99.90;;;;;;5070686;28;20434;-68
2021/01/01 05:07:59;;;;;;;19.15;11.65;;;2.50;99.90;;;;;;5071240;28;20052;-67
2021/01/01 05:10:25;;;;;;;19.55;10.48;;;2.50;99.90;;;;;;5042931;28;20052;-67
2021/01/01 05:12:54;;;;;;;17.65;11.10;;;2.50;99.90;;;;;;5064304;28;20052;-67
2021/01/01 05:15:34;;;;;;;16.02;10.80;;;2.50;99.90;;;;;;5070618;28;20048;-68
2021/01/01 05:18:00;;;;;;;17.17;10.90;;;2.50;99.90;;;;;;5071360;28;20044;-67
2021/01/01 05:20:30;;;;;;;19.70;11.63;;;2.40;99.90;;;;;;5070411;28;20433;-67
2021/01/01 05:23:21;;;;;;;19.27;11.15;;;2.40;99.90;;;;;;5070205;28;20067;-67
2021/01/01 05:25:49;;;;;;;16.17;9.52;;;2.40;99.90;;;;;;5064729;28;20059;-68
2021/01/01 05:28:15;;;;;;;17.02;11.05;;;2.40;99.90;;;;;;5069296;28;20059;-67
2021/01/01 05:30:42;;;;;;;16.92;10.48;;;2.40;99.90;;;;;;5069182;28;20049;-67
2021/01/01 05:33:14;;;;;;;16.98;10.65;;;2.40;99.90;;;;;;5069632;28;20048;-66
2021/01/01 05:35:41;;;;;;;19.20;10.93;;;2.40;99.90;;;;;;5070022;28;20052;-67
2021/01/01 05:38:16;;;;;;;16.50;10.35;;;2.30;99.90;;;;;;5069875;28;20048;-67
2021/01/01 05:40:48;;;;;;;19.02;10.77;;;2.40;99.90;;;;;;5058249;28;20064;-67
2021/01/01 05:43:21;;;;;;;17.85;11.25;;;2.30;99.90;;;;;;5064268;28;20052;-67
2021/01/01 05:45:48;;;;;;;18.17;10.35;;;2.30;99.90;;;;;;5069669;28;20392;-67
2021/01/01 05:48:18;;;;;;;18.40;11.10;;;2.30;99.90;;;;;;5069939;28;20517;-67
2021/01/01 05:50:46;;;;;;;18.80;11.23;;;2.30;99.90;;;;;;5071388;28;20047;-67
2021/01/01 05:53:17;;;;;;;18.27;11.15;;;2.30;99.90;;;;;;5068157;28;20048;-68
2021/01/01 05:55:45;;;;;;;16.85;10.80;;;2.30;99.90;;;;;;5055583;28;20037;-68
2021/01/01 05:58:25;;;;;;;19.02;11.68;;;2.20;99.90;;;;;;5061550;28;20045;-67
2021/01/01 06:00:58;;;;;;;19.77;11.85;;;2.20;99.90;;;;;;5068939;28;20491;-68
2021/01/01 06:03:32;;;;;;;19.27;12.07;;;2.20;99.90;;;;;;5069444;28;20503;-68
2021/01/01 06:06:04;;;;;;;20.73;12.27;;;2.20;99.90;;;;;;5061949;28;20049;-67
2021/01/01 06:08:32;;;;;;;19.83;11.98;;;2.20;99.90;;;;;;5071175;28;20053;-67
2021/01/01 06:11:02;;;;;;;20.13;12.20;;;2.20;99.90;;;;;;5051415;28;20060;-67
2021/01/01 06:13:36;;;;;;;20.90;12.27;;;2.10;99.90;;;;;;5070674;28;20483;-68
2021/01/01 06:16:04;;;;;;;21.23;12.40;;;2.20;99.90;;;;;;5082161;28;20040;-68
2021/01/01 06:18:33;;;;;;;20.30;11.90;;;2.10;99.90;;;;;;5070088;28;20056;-68
2021/01/01 06:21:07;;;;;;;23.42;12.82;;;2.20;99.90;;;;;;5067642;28;20045;-68
2021/01/01 06:23:38;;;;;;;19.23;11.93;;;2.20;99.90;;;;;;5059224;28;20048;-67
2021/01/01 06:26:09;;;;;;;21.02;11.82;;;2.20;99.90;;;;;;5065744;28;20048;-68
2021/01/01 06:28:41;;;;;;;19.98;11.73;;;2.20;99.90;;;;;;5064700;28;20139;-67
2021/01/01 06:31:10;;;;;;;21.05;12.27;;;2.20;99.90;;;;;;5065081;28;20052;-67
2021/01/01 06:33:41;;;;;;;22.17;13.40;;;2.10;99.90;;;;;;5066530;28;20045;-67
2021/01/01 06:36:08;;;;;;;22.88;13.32;;;2.20;99.90;;;;;;5069360;28;20040;-67
2021/01/01 06:38:40;;;;;;;20.80;13.23;;;2.20;99.90;;;;;;5069526;28;20046;-67
2021/01/01 06:41:42;;;;;;;21.98;13.60;;;2.20;99.90;;;;;;5068453;28;20062;-66
2021/01/01 06:44:08;;;;;;;19.13;11.98;;;2.20;99.90;;;;;;5069206;28;20056;-67
2021/01/01 06:46:40;;;;;;;22.73;14.10;;;2.20;99.90;;;;;;5063891;28;20059;-66
2021/01/01 06:49:28;;;;;;;23.88;14.35;;;2.10;99.90;;;;;;5067586;28;20498;-67
2021/01/01 06:52:13;;;;;;;22.27;13.77;;;2.20;99.90;;;;;;5069017;28;20056;-67
2021/01/01 06:54:59;;;;;;;24.35;14.10;;;2.10;99.90;;;;;;5069031;28;20067;-66
2021/01/01 06:57:28;;;;;;;22.63;14.00;;;2.20;99.90;;;;;;5069307;28;20128;-68
2021/01/01 06:59:56;;;;;;;23.05;13.63;;;2.10;99.90;;;;;;5068900;28;20048;-67
2021/01/01 07:02:28;;;;;;;21.67;13.10;;;2.10;99.90;;;;;;5068827;28;20041;-66
2021/01/01 07:05:00;;;;;;;22.17;13.95;;;2.10;99.90;;;;;;5068753;28;20059;-66
2021/01/01 07:07:45;;;;;;;22.25;13.40;;;2.20;99.90;;;;;;5070063;28;20117;-66
2021/01/01 07:10:35;;;;;;;22.73;14.75;;;2.20;99.90;;;;;;5061860;28;20049;-66
2021/01/01 07:13:18;;;;;;;25.63;14.98;;;2.10;99.90;;;;;;5053497;28;20060;-67
2021/01/01 07:15:46;;;;;;;24.00;14.23;;;2.20;99.90;;;;;;5065420;28;20055;-66
2021/01/01 07:18:17;;;;;;;21.38;13.68;;;2.20;99.90;;;;;;5068057;28;20371;-66
2021/01/01 07:20:44;;;;;;;22.48;14.50;;;2.20;99.90;;;;;;5069958;28;20055;-66
2021/01/01 07:23:10;;;;;;;22.20;13.13;;;2.20;99.90;;;;;;5067715;28;20051;-66
2021/01/01 07:25:38;;;;;;;25.77;14.88;;;2.20;99.90;;;;;;5069537;28;20060;-67
2021/01/01 07:28:07;;;;;;;24.65;15.05;;;2.20;99.90;;;;;;5050538;28;20048;-67
2021/01/01 07:30:35;;;;;;;23.85;14.40;;;2.20;99.90;;;;;;5063974;28;20080;-67
2021/01/01 07:33:03;;;;;;;26.90;15.30;;;2.20;99.90;;;;;;5069143;28;20052;-68
2021/01/01 07:35:30;;;;;;;25.02;14.50;;;2.20;99.90;;;;;;5072467;28;20052;-67
2021/01/01 07:37:58;;;;;;;23.08;14.13;;;2.30;99.90;;;;;;5071729;28;20383;-67
2021/01/01 07:40:25;;;;;;;25.33;14.32;;;2.30;99.90;;;;;;5067153;28;20467;-67
2021/01/01 07:42:53;;;;;;;22.80;14.35;;;2.40;99.90;;;;;;5053932;28;20403;-66
2021/01/01 07:45:20;;;;;;;26.05;15.38;;;2.40;99.90;;;;;;5068362;28;20075;-67
2021/01/01 07:47:48;;;;;;;23.80;13.75;;;2.40;99.90;;;;;;5070616;28;20063;-67
2021/01/01 07:50:16;;;;;;;24.23;15.18;;;2.40;99.90;;;;;;5072263;28;20059;-67
2021/01/01 07:52:43;;;;;;;21.77;13.38;;;2.50;99.90;;;;;;5066165;28;20150;-67
2021/01/01 07:55:19;;;;;;;26.30;15.77;;;2.50;99.90;;;;;;5065632;28;20052;-68
2021/01/01 07:57:46;;;;;;;23.80;14.68;;;2.60;99.90;;;;;;5064403;28;20047;-66
2021/01/01 08:00:14;;;;;;;25.35;14.77;;;2.60;99.90;;;;;;5071417;28;20402;-67
2021/01/01 08:02:41;;;;;;;23.58;14.27;;;2.60;99.90;;;;;;5060278;28;20057;-67
2021/01/01 08:05:12;;;;;;;26.25;15.10;;;2.70;99.90;;;;;;5063437;28;20057;-67
2021/01/01 08:07:39;;;;;;;22.63;13.88;;;2.70;99.90;;;;;;5070086;28;20075;-67
2021/01/01 08:10:06;;;;;;;23.65;13.27;;;2.80;99.90;;;;;;5069675;28;20055;-68
2021/01/01 08:12:37;;;;;;;21.63;12.77;;;2.80;99.90;;;;;;5071211;28;20040;-67
2021/01/01 08:15:04;;;;;;;23.55;14.48;;;2.90;99.90;;;;;;5070906;28;20054;-67
2021/01/01 08:17:31;;;;;;;23.98;15.07;;;2.90;99.90;;;;;;5067468;28;20036;-67
2021/01/01 08:19:58;;;;;;;25.23;14.95;;;3.00;99.90;;;;;;5053528;28;20060;-67
2021/01/01 08:22:33;;;;;;;25.30;14.98;;;3.00;99.90;;;;;;5070670;28;20068;-68
2021/01/01 08:25:00;;;;;;;24.73;14.43;;;3.10;99.90;;;;;;5042908;28;20407;-67
2021/01/01 08:27:28;;;;;;;24.88;14.85;;;3.10;99.90;;;;;;5069268;28;20045;-67
2021/01/01 08:29:59;;;;;;;25.67;14.70;;;3.20;99.90;;;;;;5071589;28;20071;-68
2021/01/01 08:32:26;;;;;;;23.65;14.80;;;3.30;99.90;;;;;;5068571;28;20049;-67
2021/01/01 08:34:53;;;;;;;24.75;15.35;;;3.30;99.90;;;;;;5072722;28;20511;-67
2021/01/01 08:37:24;;;;;;;28.83;16.23;;;3.30;99.90;;;;;;5070654;28;20048;-68
2021/01/01 08:40:07;;;;;;;25.25;15.02;;;3.40;99.90;;;;;;5070640;28;20063;-67
2021/01/01 08:42:36;;;;;;;27.25;15.98;;;3.40;99.90;;;;;;5058491;28;20501;-66
2021/01/01 08:45:04;;;;;;;24.25;14.55;;;3.40;99.90;;;;;;5069202;28;20048;-67
2021/01/01 08:47:39;;;;;;;23.38;14.40;;;3.30;99.90;;;;;;5069333;28;20506;-66
2021/01/01 08:50:26;;;;;;;27.92;15.65;;;3.40;99.90;;;;;;5070402;28;20056;-66
2021/01/01 08:53:02;;;;;;;25.23;14.80;;;3.30;99.90;;;;;;5071116;28;20048;-67
2021/01/01 08:55:30;;;;;;;27.70;16.27;;;3.30;99.90;;;;;;5062016;28;20147;-66
2021/01/01 08:58:09;;;;;;;25.98;15.77;;;3.40;99.90;;;;;;5070887;28;20063;-66
2021/01/01 09:00:36;;;;;;;28.00;16.10;;;3.30;99.90;;;;;;5068096;28;20075;-69
2021/01/01 09:03:06;;;;;;;28.88;16.05;;;3.30;99.90;;;;;;5070226;28;20486;-69
2021/01/01 09:05:34;;;;;;;25.45;15.98;;;3.30;99.90;;;;;;5068286;28;20517;-69
2021/01/01 09:08:06;;;;;;;33.05;16.98;;;3.30;99.90;;;;;;5066500;28;20495;-69
2021/01/01 09:10:33;;;;;;;30.27;16.77;;;3.30;99.90;;;;;;5066585;28;20052;-69
2021/01/01 09:13:10;;;;;;;29.00;17.33;;;3.40;99.90;;;;;;5069557;28;20052;-69
2021/01/01 09:15:36;;;;;;;30.38;17.33;;;3.40;99.90;;;;;;5064920;28;20056;-68
2021/01/01 09:18:07;;;;;;;27.92;16.25;;;3.40;99.90;;;;;;5070232;28;20048;-69
2021/01/01 09:20:35;;;;;;;25.80;15.85;;;3.40;99.90;;;;;;5064675;28;20052;-70
2021/01/01 09:23:03;;;;;;;26.60;16.58;;;3.50;99.90;;;;;;5069149;28;20049;-69
2021/01/01 09:25:31;;;;;;;26.17;15.40;;;3.60;99.90;;;;;;5069668;28;20437;-69
2021/01/01 09:27:58;;;;;;;26.88;16.38;;;3.60;99.90;;;;;;5070285;28;20083;-69
2021/01/01 09:30:28;;;;;;;24.40;15.15;;;3.60;99.90;;;;;;5060874;28;20053;-69
2021/01/01 09:32:57;;;;;;;24.40;14.95;;;3.70;99.90;;;;;;5065276;28;20044;-68
2021/01/01 09:35:24;;;;;;;26.75;15.60;;;3.70;99.90;;;;;;5052118;28;20051;-69
2021/01/01 09:37:52;;;;;;;25.75;15.70;;;3.80;99.90;;;;;;5069506;28;20072;-68
2021/01/01 09:40:22;;;;;;;25.60;15.93;;;3.90;99.90;;;;;;5069785;28;20044;-70
2021/01/01 09:42:50;;;;;;;26.25;14.98;;;3.90;99.90;;;;;;5070774;28;20417;-69
2021/01/01 09:45:16;;;;;;;23.92;14.77;;;3.90;99.90;;;;;;5071114;28;20058;-69
2021/01/01 09:47:43;;;;;;;25.42;15.73;;;3.90;99.90;;;;;;5070655;28;20572;-69
2021/01/01 09:50:11;;;;;;;28.13;15.80;;;3.90;99.90;;;;;;5071034;28;20052;-68
2021/01/01 09:52:38;;;;;;;25.83;15.05;;;3.90;99.90;;;;;;5052935;28;20055;-69
2021/01/01 09:55:06;;;;;;;27.77;16.73;;;3.90;99.90;;;;;;5070723;28;20044;-70
2021/01/01 09:57:33;;;;;;;26.83;15.55;;;4.00;99.90;;;;;;5070602;28;20067;-69
2021/01/01 09:59:59;;;;;;;23.67;14.88;;;4.00;99.90;;;;;;5069845;28;20054;-70
2021/01/01 10:02:31;;;;;;;24.77;15.70;;;4.00;99.90;;;;;;5070139;28;20086;-69
2021/01/01 10:04:57;;;;;;;23.45;14.75;;;4.10;99.90;;;;;;5071069;28;20496;-69
2021/01/01 10:07:26;;;;;;;27.27;15.98;;;4.10;99.90;;;;;;5068652;28;20071;-69
2021/01/01 10:09:55;;;;;;;27.52;16.95;;;4.20;99.90;;;;;;5067274;28;20045;-69
2021/01/01 10:12:24;;;;;;;26.52;16.85;;;4.10;99.90;;;;;;5051625;28;20079;-70
2021/01/01 10:14:54;;;;;;;26.73;15.90;;;4.10;99.90;;;;;;5069583;28;20487;-70
2021/01/01 10:17:26;;;;;;;24.80;14.90;;;4.00;99.90;;;;;;5063528;28;20352;-69
2021/01/01 10:19:54;;;;;;;23.77;13.65;;;4.00;99.90;;;;;;5065123;28;20555;-69
2021/01/01 10:22:21;;;;;;;24.65;15.38;;;4.20;99.90;;;;;;5069128;28;20059;-69
2021/01/01 10:24:47;;;;;;;27.23;14.90;;;4.30;99.90;;;;;;5070303;28;20040;-69
2021/01/01 10:27:15;;;;;;;26.15;15.80;;;4.20;99.90;;;;;;5068631;28;20052;-68
2021/01/01 10:29:42;;;;;;;25.50;16.75;;;4.30;99.90;;;;;;5068616;28;20387;-69
2021/01/01 10:32:10;;;;;;;27.88;16.30;;;4.30;99.90;;;;;;5068026;28;20052;-68
2021/01/01 10:34:38;;;;;;;29.40;16.65;;;4.40;99.90;;;;;;5064196;28;20365;-68
2021/01/01 10:37:04;;;;;;;25.50;15.88;;;4.50;99.90;;;;;;5069285;28;20102;-69
2021/01/01 10:39:31;;;;;;;25.33;15.45;;;4.70;99.90;;;;;;5069064;28;20394;-69
2021/01/01 10:41:57;;;;;;;30.88;17.00;;;4.70;99.90;;;;;;5061045;28;20414;-69
2021/01/01 10:44:24;;;;;;;27.02;16.15;;;4.70;99.90;;;;;;5068418;28;20135;-69
2021/01/01 10:46:54;;;;;;;24.35;15.10;;;4.80;99.90;;;;;;5067195;28;20135;-68
2021/01/01 10:49:24;;;;;;;28.58;16.40;;;4.90;99.90;;;;;;5069694;28;20473;-69
2021/01/01 10:51:51;;;;;;;26.98;16.10;;;5.00;99.90;;;;;;5055669;28;20514;-69
2021/01/01 10:54:18;;;;;;;25.90;15.25;;;5.10;99.90;;;;;;5068120;28;20055;-70
2021/01/01 10:56:46;;;;;;;25.58;15.80;;;5.30;99.90;;;;;;5067934;28;20048;-69
2021/01/01 10:59:32;;;;;;;23.58;14.20;;;5.30;99.90;;;;;;5068364;28;20174;-70
2021/01/01 11:02:00;;;;;;;25.65;14.85;;;5.50;99.90;;;;;;5082294;28;20052;-69
2021/01/01 11:04:26;;;;;;;24.25;15.15;;;5.60;99.90;;;;;;5067637;28;20049;-69
2021/01/01 11:06:53;;;;;;;26.10;15.27;;;5.50;99.90;;;;;;5069938;28;20056;-69
2021/01/01 11:09:20;;;;;;;24.80;15.80;;;5.40;99.90;;;;;;5069753;28;20052;-69
2021/01/01 11:11:48;;;;;;;24.55;14.15;;;5.40;99.90;;;;;;5063981;28;20048;-69
2021/01/01 12:26:26;;;;;;;23.50;13.82;;;4.50;99.90;;;;;;4923825;29;20055;-69
2021/01/01 12:29:03;;;;;;;22.88;13.68;;;4.60;99.90;;;;;;4912354;29;20070;-69
2021/01/01 12:31:30;;;;;;;20.98;11.70;;;4.80;99.90;;;;;;4914734;29;20067;-70
2021/01/01 12:33:57;;;;;;;21.10;12.60;;;4.90;99.90;;;;;;4920406;29;20055;-70
2021/01/01 12:36:23;;;;;;;18.35;11.95;;;4.90;99.90;;;;;;4916701;29;20059;-69
2021/01/01 12:38:50;;;;;;;18.90;12.38;;;5.00;99.90;;;;;;4916981;29;20048;-70
2021/01/01 12:41:17;;;;;;;20.90;13.63;;;5.10;99.90;;;;;;4917392;29;20067;-69
2021/01/01 12:43:43;;;;;;;17.75;11.55;;;5.20;99.90;;;;;;4914320;29;20067;-69
2021/01/01 12:46:11;;;;;;;18.70;11.35;;;5.10;99.90;;;;;;4916886;29;20052;-70
2021/01/01 12:48:38;;;;;;;18.33;11.75;;;5.20;99.90;;;;;;4913804;29;20044;-71
2021/01/01 12:51:05;;;;;;;17.48;11.20;;;5.30;99.90;;;;;;4925377;29;20503;-70
2021/01/01 12:53:31;;;;;;;21.10;11.43;;;5.30;99.90;;;;;;4914216;29;20048;-71
2021/01/01 12:55:57;;;;;;;19.02;11.80;;;5.20;99.90;;;;;;4929538;28;20062;-72
2021/01/01 12:58:24;;;;;;;18.52;12.13;;;5.20;99.90;;;;;;4979803;28;20055;-72
2021/01/01 13:00:50;;;;;;;18.15;11.52;;;5.10;99.90;;;;;;4978364;28;20065;-71
2021/01/01 13:03:17;;;;;;;19.55;12.02;;;5.20;99.90;;;;;;5019359;28;20059;-71
2021/01/01 13:05:43;;;;;;;18.50;11.60;;;5.10;99.90;;;;;;5075141;28;20051;-70
2021/01/01 13:08:10;;;;;;;19.27;11.80;;;5.10;99.90;;;;;;5070158;28;20403;-71
2021/01/01 13:10:36;;;;;;;16.73;11.13;;;5.10;99.90;;;;;;5067981;28;20178;-70
2021/01/01 13:13:03;;;;;;;18.80;11.90;;;5.00;99.90;;;;;;5064989;28;20139;-72
2021/01/01 13:15:29;;;;;;;19.25;12.43;;;5.00;99.90;;;;;;5070275;28;20466;-72
2021/01/01 13:17:56;;;;;;;17.08;11.07;;;4.90;99.90;;;;;;5071046;28;20060;-72
2021/01/01 13:20:23;;;;;;;18.60;11.95;;;4.80;99.90;;;;;;5071130;28;20045;-72
2021/01/01 13:22:50;;;;;;;18.35;11.80;;;4.70;99.90;;;;;;5071524;28;20040;-72
2021/01/01 13:25:20;;;;;;;27.27;15.48;;;4.70;99.90;;;;;;5064129;28;20075;-72
2021/01/01 13:27:48;;;;;;;22.33;13.00;;;4.70;99.90;;;;;;5073834;28;20052;-71
2021/01/01 13:30:18;;;;;;;21.42;13.65;;;4.70;99.90;;;;;;5062525;28;20094;-71
2021/01/01 13:32:44;;;;;;;19.88;12.30;;;4.70;99.90;;;;;;5070754;28;20052;-70
2021/01/01 13:35:12;;;;;;;18.77;12.27;;;4.70;99.90;;;;;;5070612;28;20044;-72
2021/01/01 13:37:38;;;;;;;17.50;11.82;;;4.70;99.90;;;;;;5070924;28;20052;-72
2021/01/01 13:40:05;;;;;;;21.92;12.40;;;4.70;99.90;;;;;;5061092;28;20521;-70
2021/01/01 13:42:36;;;;;;;20.73;12.23;;;4.60;99.90;;;;;;5071024;28;20048;-73
2021/01/01 13:45:03;;;;;;;18.67;11.95;;;4.70;99.90;;;;;;5070306;28;20053;-71
2021/01/01 13:47:29;;;;;;;19.52;12.23;;;4.60;99.90;;;;;;5070572;28;20054;-73
2021/01/01 13:49:56;;;;;;;18.50;11.95;;;4.50;99.90;;;;;;5069815;28;20049;-73
2021/01/01 13:52:23;;;;;;;19.55;11.93;;;4.50;99.90;;;;;;5070307;28;20211;-71
2021/01/01 13:54:50;;;;;;;18.33;11.48;;;4.50;99.90;;;;;;5066876;28;20044;-72
2021/01/01 13:57:17;;;;;;;20.65;12.38;;;4.50;99.90;;;;;;5067549;28;20152;-72
2021/01/01 13:59:44;;;;;;;21.02;13.30;;;4.50;99.90;;;;;;5071045;28;20487;-72